Time;durP1;ratioP1;P1;durP2;ratioP2;P2;SDS_P1;SDS_P2;PMS_P1;PMS_P2;Temp;Humidity;BMP_temperature;BMP_pressure;BME280_temperature;BME280_humidity;BME280_pressure;Samples;Min_cycle;Max_cycle;Signal;HPM_P1;HPM_P2
2024/03/13 00:00:26;;;;;;;;;;;;;;;21.18;39.99;100151.27;103147;1294;61349;-81
2024/03/13 00:02:53;;;;;;;;;;;;;;;21.18;40.16;100149.45;103344;1294;61432;-82
2024/03/13 00:05:20;;;;;;;;;;;;;;;21.18;39.88;100147.48;103254;1295;61275;-82
2024/03/13 00:07:46;;;;;;;;;;;;;;;21.18;40.01;100145.88;103147;1295;61336;-82
2024/03/13 00:10:11;;;;;;;;;;;;;;;21.18;40.20;100149.45;103273;1295;62584;-81
2024/03/13 00:12:37;;;;;;;;;;;;;;;21.19;40.10;100152.05;103268;1298;61352;-82
2024/03/13 00:15:03;;;;;;;;;;;;;;;21.18;40.03;100148.86;103200;1297;61398;-82
2024/03/13 00:17:30;;;;;;;;;;;;;;;21.19;40.10;100142.04;103111;1298;61435;-82
2024/03/13 00:19:56;;;;;;;;;;;;;;;21.20;40.00;100141.27;103002;1297;73497;-82
2024/03/13 00:22:22;;;;;;;;;;;;;;;21.19;40.11;100141.13;102918;1298;61263;-82
2024/03/13 00:24:48;;;;;;;;;;;;;;;21.19;40.11;100139.13;102956;1297;61493;-81
2024/03/13 00:27:17;;;;;;;;;;;;;;;21.19;40.13;100138.05;102953;1296;61292;-82
2024/03/13 00:29:44;;;;;;;;;;;;;;;21.20;40.16;100141.77;102999;1297;71466;-81
2024/03/13 00:32:12;;;;;;;;;;;;;;;21.19;39.93;100141.11;103098;1297;73460;-82
2024/03/13 00:34:38;;;;;;;;;;;;;;;21.20;40.17;100136.79;102882;1301;61322;-82
2024/03/13 00:37:04;;;;;;;;;;;;;;;21.20;40.14;100134.43;103044;1294;61411;-82
2024/03/13 00:39:30;;;;;;;;;;;;;;;21.20;40.11;100135.88;103145;1299;61311;-81
2024/03/13 00:41:55;;;;;;;;;;;;;;;21.20;40.00;100133.88;103009;1300;61429;-82
2024/03/13 00:44:22;;;;;;;;;;;;;;;21.20;40.02;100134.77;103075;1295;61390;-82
2024/03/13 00:46:48;;;;;;;;;;;;;;;21.20;40.21;100132.59;102884;1300;61448;-82
2024/03/13 00:49:15;;;;;;;;;;;;;;;21.20;40.15;100134.58;102923;1295;61332;-82
2024/03/13 00:51:44;;;;;;;;;;;;;;;21.20;40.07;100134.04;103068;1298;61317;-82
2024/03/13 00:54:09;;;;;;;;;;;;;;;21.20;40.07;100133.17;102881;1303;61584;-81
2024/03/13 00:56:36;;;;;;;;;;;;;;;21.21;40.03;100132.78;103015;1294;61464;-82
2024/03/13 00:59:02;;;;;;;;;;;;;;;21.21;40.18;100130.21;103083;1300;61583;-81
2024/03/13 01:01:28;;;;;;;;;;;;;;;21.21;40.01;100132.76;103203;1299;61415;-82
2024/03/13 01:04:00;;;;;;;;;;;;;;;21.21;40.10;100128.23;103148;1294;61410;-82
2024/03/13 01:06:28;;;;;;;;;;;;;;;21.22;40.05;100128.36;102841;1297;61268;-81
2024/03/13 01:08:58;;;;;;;;;;;;;;;21.22;40.18;100126.02;102920;1298;72531;-80
2024/03/13 01:11:24;;;;;;;;;;;;;;;21.21;39.99;100122.14;103017;1294;74550;-82
2024/03/13 01:13:51;;;;;;;;;;;;;;;21.22;39.98;100119.09;103013;1295;61436;-82
2024/03/13 01:16:16;;;;;;;;;;;;;;;21.22;39.99;100117.48;102787;1298;61405;-82
2024/03/13 01:18:43;;;;;;;;;;;;;;;21.22;40.03;100118.33;102929;1303;61414;-82
2024/03/13 01:21:11;;;;;;;;;;;;;;;21.22;40.10;100114.06;102909;1297;61417;-82
2024/03/13 01:23:42;;;;;;;;;;;;;;;21.22;40.18;100115.61;103077;1298;61330;-81
2024/03/13 01:26:08;;;;;;;;;;;;;;;21.22;40.07;100114.91;102902;1298;61380;-82
2024/03/13 01:28:36;;;;;;;;;;;;;;;21.23;39.94;100110.56;102810;1295;72281;-82
2024/03/13 01:31:08;;;;;;;;;;;;;;;21.23;40.09;100108.41;103036;1295;74673;-82
2024/03/13 01:33:34;;;;;;;;;;;;;;;21.23;40.11;100104.14;103199;1295;61504;-82
2024/03/13 01:35:59;;;;;;;;;;;;;;;21.23;40.01;100101.77;103069;1306;61401;-80
2024/03/13 01:38:25;;;;;;;;;;;;;;;21.23;40.05;100100.17;103093;1298;61349;-83
2024/03/13 01:57:32;;;;;;;;;;;;;;;21.24;39.90;100083.10;102816;1297;61631;-83
2024/03/13 02:02:47;;;;;;;;;;;;;;;21.24;40.13;100084.52;102851;1296;75643;-82
2024/03/13 02:05:17;;;;;;;;;;;;;;;21.24;39.93;100080.73;103066;1296;61804;-82
2024/03/13 02:07:43;;;;;;;;;;;;;;;21.24;40.01;100085.21;103084;1295;61428;-81
2024/03/13 02:10:08;;;;;;;;;;;;;;;21.25;40.09;100088.95;102732;1294;487193;-79
2024/03/13 02:12:34;;;;;;;;;;;;;;;21.25;39.94;100080.71;103007;1295;61477;-82
2024/03/13 02:14:59;;;;;;;;;;;;;;;21.24;40.10;100083.77;102956;1294;61399;-82
2024/03/13 02:17:26;;;;;;;;;;;;;;;21.25;39.98;100083.93;102738;1295;61434;-82
2024/03/13 02:19:54;;;;;;;;;;;;;;;21.24;39.93;100083.60;103056;1295;62727;-82
2024/03/13 02:22:20;;;;;;;;;;;;;;;21.25;40.03;100086.80;103253;1299;72394;-81
2024/03/13 02:24:45;;;;;;;;;;;;;;;21.25;39.94;100088.91;102886;1298;61401;-82
2024/03/13 02:27:11;;;;;;;;;;;;;;;21.25;40.18;100082.61;102773;1301;61390;-82
2024/03/13 02:29:38;;;;;;;;;;;;;;;21.25;39.95;100085.48;102899;1298;61433;-82
2024/03/13 02:32:04;;;;;;;;;;;;;;;21.25;40.02;100087.48;102829;1294;61394;-82
2024/03/13 02:34:30;;;;;;;;;;;;;;;21.25;39.93;100084.03;102868;1300;61359;-82
2024/03/13 02:36:56;;;;;;;;;;;;;;;21.26;40.03;100087.77;102795;1295;62721;-82
2024/03/13 02:39:22;;;;;;;;;;;;;;;21.26;39.99;100084.70;102776;1298;61373;-81
2024/03/13 02:41:47;;;;;;;;;;;;;;;21.26;40.05;100087.02;103040;1300;61416;-81
2024/03/13 02:44:13;;;;;;;;;;;;;;;21.26;39.91;100089.20;102963;1300;61295;-82
2024/03/13 02:46:43;;;;;;;;;;;;;;;21.26;39.99;100087.03;102996;1300;61472;-82
2024/03/13 02:49:11;;;;;;;;;;;;;;;21.26;40.03;100089.33;103267;1299;61308;-80
2024/03/13 02:51:36;;;;;;;;;;;;;;;21.27;40.12;100087.17;102958;1294;62564;-81
2024/03/13 02:54:04;;;;;;;;;;;;;;;21.27;39.98;100092.86;102756;1300;61420;-82
2024/03/13 02:56:31;;;;;;;;;;;;;;;21.27;40.02;100088.56;103085;1297;74748;-82
2024/03/13 02:58:57;;;;;;;;;;;;;;;21.28;40.00;100090.51;102859;1298;62659;-81
2024/03/13 03:01:22;;;;;;;;;;;;;;;21.27;39.95;100085.50;102853;1301;61413;-81
2024/03/13 03:03:49;;;;;;;;;;;;;;;21.27;39.91;100090.16;102912;1295;61500;-81
2024/03/13 03:06:15;;;;;;;;;;;;;;;21.28;39.93;100088.38;102773;1300;61818;-81
2024/03/13 03:08:43;;;;;;;;;;;;;;;21.28;40.08;100088.90;103008;1299;61378;-81
2024/03/13 03:11:10;;;;;;;;;;;;;;;21.29;40.00;100085.27;102806;1298;61404;-82
2024/03/13 03:13:38;;;;;;;;;;;;;;;21.28;39.90;100086.34;102776;1302;61518;-82
2024/03/13 03:16:04;;;;;;;;;;;;;;;21.29;40.03;100086.15;102793;1298;74450;-81
2024/03/13 03:18:30;;;;;;;;;;;;;;;21.28;40.14;100089.02;102942;1295;61431;-82
2024/03/13 03:20:58;;;;;;;;;;;;;;;21.29;40.05;100081.65;102811;1300;61419;-82
2024/03/13 03:23:24;;;;;;;;;;;;;;;21.29;40.07;100086.45;102961;1295;72262;-82
2024/03/13 03:25:50;;;;;;;;;;;;;;;21.29;39.99;100081.65;103107;1298;61420;-82
2024/03/13 03:28:16;;;;;;;;;;;;;;;21.29;39.93;100083.05;102841;1300;61275;-82
2024/03/13 03:30:42;;;;;;;;;;;;;;;21.29;39.96;100088.60;102828;1300;61406;-82
2024/03/13 03:33:13;;;;;;;;;;;;;;;21.29;39.87;100087.03;102741;1298;61281;-81
2024/03/13 03:35:40;;;;;;;;;;;;;;;21.29;39.88;100085.02;102840;1301;74383;-81
2024/03/13 03:38:05;;;;;;;;;;;;;;;21.30;40.02;100081.58;102791;1297;61456;-82
2024/03/13 03:40:33;;;;;;;;;;;;;;;21.30;40.00;100079.98;102770;1300;61378;-82
2024/03/13 03:43:03;;;;;;;;;;;;;;;21.29;40.03;100077.84;102820;1302;72214;-82
2024/03/13 03:45:30;;;;;;;;;;;;;;;21.30;40.02;100079.23;102864;1298;74433;-82
2024/03/13 03:47:56;;;;;;;;;;;;;;;21.30;40.05;100081.34;102923;1298;61420;-82
2024/03/13 03:50:22;;;;;;;;;;;;;;;21.30;39.95;100077.45;102895;1295;61410;-82
2024/03/13 03:52:47;;;;;;;;;;;;;;;21.30;40.02;100080.11;102970;1298;62214;-82
2024/03/13 03:55:14;;;;;;;;;;;;;;;21.30;39.96;100076.52;102916;1300;61724;-82
2024/03/13 03:57:43;;;;;;;;;;;;;;;21.31;40.01;100077.00;102890;1298;61434;-82
2024/03/13 04:00:12;;;;;;;;;;;;;;;21.31;39.97;100075.77;102954;1295;61298;-79
2024/03/13 04:02:41;;;;;;;;;;;;;;;21.31;40.08;100076.48;103135;1298;61263;-81
2024/03/13 04:05:08;;;;;;;;;;;;;;;21.30;40.00;100077.57;103087;1300;72476;-81
2024/03/13 04:07:38;;;;;;;;;;;;;;;21.31;40.11;100079.47;103100;1300;74650;-82
2024/03/13 04:10:05;;;;;;;;;;;;;;;21.31;39.90;100082.34;103150;1298;61375;-80
2024/03/13 04:12:31;;;;;;;;;;;;;;;21.31;40.03;100081.64;102780;1297;61437;-82
2024/03/13 04:14:58;;;;;;;;;;;;;;;21.31;40.06;100082.52;102849;1296;73345;-82
2024/03/13 04:17:24;;;;;;;;;;;;;;;21.32;40.05;100079.27;102805;1301;61371;-82
2024/03/13 04:19:49;;;;;;;;;;;;;;;21.32;40.13;100081.93;102930;1300;61485;-81
2024/03/13 04:22:16;;;;;;;;;;;;;;;21.32;40.08;100076.90;102874;1300;62482;-81
2024/03/13 04:24:43;;;;;;;;;;;;;;;21.32;39.94;100077.27;102928;1301;61371;-81
2024/03/13 04:27:14;;;;;;;;;;;;;;;21.32;40.05;100078.53;103042;1298;74434;-81
2024/03/13 04:29:41;;;;;;;;;;;;;;;21.32;39.97;100079.76;103092;1299;61371;-81
2024/03/13 04:32:08;;;;;;;;;;;;;;;21.33;39.95;100080.77;103133;1299;61389;-82
2024/03/13 04:34:34;;;;;;;;;;;;;;;21.33;40.05;100077.36;102926;1296;72313;-81
2024/03/13 04:37:00;;;;;;;;;;;;;;;21.33;39.97;100077.73;103143;1298;61440;-81
2024/03/13 04:39:26;;;;;;;;;;;;;;;21.33;40.12;100078.10;103273;1295;61413;-81
2024/03/13 04:41:51;;;;;;;;;;;;;;;21.33;40.14;100081.83;103056;1296;61358;-81
2024/03/13 04:44:17;;;;;;;;;;;;;;;21.33;40.03;100081.32;102773;1301;61426;-81
2024/03/13 04:46:45;;;;;;;;;;;;;;;21.33;40.06;100085.95;103018;1300;61417;-81
2024/03/13 04:49:12;;;;;;;;;;;;;;;21.34;39.99;100084.27;103116;1298;74525;-82
2024/03/13 04:51:38;;;;;;;;;;;;;;;21.33;40.03;100083.04;102794;1296;61500;-82
2024/03/13 04:54:06;;;;;;;;;;;;;;;21.33;39.99;100086.29;102992;1300;61496;-82
2024/03/13 04:56:32;;;;;;;;;;;;;;;21.34;40.04;100086.23;103753;1295;61318;-81
2024/03/13 04:58:59;;;;;;;;;;;;;;;21.34;39.94;100089.29;103081;1295;74375;-81
2024/03/13 05:01:27;;;;;;;;;;;;;;;21.34;39.90;100090.50;102714;1301;61345;-82
2024/03/13 05:03:53;;;;;;;;;;;;;;;21.34;39.87;100086.75;103040;1296;62045;-83
2024/03/13 05:06:21;;;;;;;;;;;;;;;21.34;39.81;100087.45;102920;1300;61406;-82
2024/03/13 05:08:48;;;;;;;;;;;;;;;21.34;39.83;100088.36;102777;1301;74255;-82
2024/03/13 05:11:17;;;;;;;;;;;;;;;21.35;39.79;100091.67;104631;1296;61387;-81
2024/03/13 05:13:46;;;;;;;;;;;;;;;21.35;39.69;100091.30;102913;1299;62149;-84
2024/03/13 05:16:12;;;;;;;;;;;;;;;21.35;39.75;100087.55;103374;1294;72525;-83
2024/03/13 05:18:39;;;;;;;;;;;;;;;21.35;39.73;100090.77;103421;1300;74635;-83
2024/03/13 05:21:04;;;;;;;;;;;;;;;21.35;39.63;100090.77;103320;1300;61342;-84
2024/03/13 05:23:30;;;;;;;;;;;;;;;21.35;39.69;100092.92;103321;1299;62529;-83
2024/03/13 05:25:55;;;;;;;;;;;;;;;21.35;39.71;100089.88;103465;1298;61312;-84
2024/03/13 05:28:28;;;;;;;;;;;;;;;21.35;39.65;100093.11;103387;1298;61373;-84
2024/03/13 05:30:54;;;;;;;;;;;;;;;21.34;39.50;100089.44;103587;1295;74585;-82
2024/03/13 05:33:19;;;;;;;;;;;;;;;21.33;39.66;100090.77;103478;1299;61397;-82
2024/03/13 05:35:45;;;;;;;;;;;;;;;21.33;39.71;100090.08;103686;1301;59411;-82
2024/03/13 05:38:11;;;;;;;;;;;;;;;21.31;39.58;100095.07;104045;1301;61387;-82
2024/03/13 05:40:36;;;;;;;;;;;;;;;21.29;39.55;100102.34;103320;1294;61443;-80
2024/03/13 05:43:02;;;;;;;;;;;;;;;21.27;39.45;100101.27;103668;1298;61318;-81
2024/03/13 05:45:28;;;;;;;;;;;;;;;21.25;39.69;100105.40;103719;1296;61355;-80
2024/03/13 05:47:53;;;;;;;;;;;;;;;21.21;39.64;100104.25;103568;1295;62188;-80
2024/03/13 05:50:20;;;;;;;;;;;;;;;21.18;39.64;100104.52;103847;1295;61422;-80
2024/03/13 05:52:46;;;;;;;;;;;;;;;21.16;39.54;100104.55;104033;1300;62449;-83
2024/03/13 05:55:13;;;;;;;;;;;;;;;21.12;39.63;100106.48;103694;1296;61432;-80
2024/03/13 05:57:38;;;;;;;;;;;;;;;21.08;39.74;100108.70;103811;1296;61464;-80
2024/03/13 06:00:09;;;;;;;;;;;;;;;21.05;39.67;100109.93;103996;1295;61208;-81
2024/03/13 06:02:38;;;;;;;;;;;;;;;21.01;39.85;100115.20;103921;1301;74863;-80
2024/03/13 06:05:09;;;;;;;;;;;;;;;20.99;39.97;100116.84;104048;1298;61337;-80
2024/03/13 06:07:37;;;;;;;;;;;;;;;20.96;40.07;100117.77;103975;1295;60173;-80
2024/03/13 06:10:05;;;;;;;;;;;;;;;20.95;39.98;100119.48;104970;1295;72699;-81
2024/03/13 06:12:31;;;;;;;;;;;;;;;20.95;39.92;100125.38;103781;1300;74554;-80
2024/03/13 06:14:59;;;;;;;;;;;;;;;20.95;40.22;100125.52;103810;1295;61375;-80
2024/03/13 06:17:25;;;;;;;;;;;;;;;20.97;39.90;100128.22;103190;1295;61302;-80
2024/03/13 06:19:50;;;;;;;;;;;;;;;20.98;40.05;100127.61;104151;1300;61345;-81
2024/03/13 06:22:16;;;;;;;;;;;;;;;20.99;40.17;100129.16;104207;1295;61436;-82
2024/03/13 06:24:42;;;;;;;;;;;;;;;20.98;40.24;100128.91;104280;1297;59863;-81
2024/03/13 06:27:15;;;;;;;;;;;;;;;20.97;40.18;100133.13;104564;1294;59936;-83
2024/03/13 06:29:57;;;;;;;;;;;;;;;20.95;40.28;100131.99;104085;1296;72441;-82
2024/03/13 06:32:24;;;;;;;;;;;;;;;20.93;40.31;100135.01;103853;1304;72346;-82
2024/03/13 06:34:49;;;;;;;;;;;;;;;20.92;40.35;100133.45;104150;1298;61339;-82
2024/03/13 06:37:16;;;;;;;;;;;;;;;20.91;40.54;100130.11;105030;1294;59204;-81
2024/03/13 06:39:41;;;;;;;;;;;;;;;20.91;40.72;100131.42;104978;1295;61215;-81
2024/03/13 06:42:11;;;;;;;;;;;;;;;20.90;40.81;100131.81;105067;1298;60352;-81
2024/03/13 06:44:37;;;;;;;;;;;;;;;20.90;40.99;100133.91;104897;1295;60608;-81
2024/03/13 06:47:03;;;;;;;;;;;;;;;20.90;41.10;100134.16;105158;1297;61343;-80
2024/03/13 06:49:28;;;;;;;;;;;;;;;20.91;41.24;100137.13;105104;1296;60056;-81
2024/03/13 06:51:54;;;;;;;;;;;;;;;20.91;41.35;100134.81;104723;1294;61199;-79
2024/03/13 06:54:20;;;;;;;;;;;;;;;20.91;41.50;100134.42;103978;1295;61403;-81
2024/03/13 06:56:48;;;;;;;;;;;;;;;20.90;41.44;100138.60;103800;1294;61525;-80
2024/03/13 06:59:17;;;;;;;;;;;;;;;20.88;41.58;100136.81;103980;1295;61896;-80
2024/03/13 07:01:45;;;;;;;;;;;;;;;20.86;41.54;100134.86;104268;1294;61177;-81
2024/03/13 07:04:11;;;;;;;;;;;;;;;20.86;41.69;100136.08;104292;1295;75664;-79
2024/03/13 07:06:37;;;;;;;;;;;;;;;20.87;41.64;100136.34;104086;1295;59391;-79
2024/03/13 07:09:03;;;;;;;;;;;;;;;20.90;41.61;100144.31;104070;1299;61296;-79
2024/03/13 07:11:28;;;;;;;;;;;;;;;20.92;41.70;100147.63;104398;1299;63577;-80
2024/03/13 07:13:54;;;;;;;;;;;;;;;20.94;41.68;100147.65;104527;1297;61413;-80
2024/03/13 07:16:22;;;;;;;;;;;;;;;20.97;41.60;100152.95;105212;1295;61398;-79
2024/03/13 07:18:48;;;;;;;;;;;;;;;21.00;41.64;100150.36;104935;1294;59704;-79
2024/03/13 07:21:13;;;;;;;;;;;;;;;21.03;41.70;100154.64;103999;1295;60091;-79
2024/03/13 07:23:39;;;;;;;;;;;;;;;21.05;41.53;100154.41;104100;1294;61347;-79
2024/03/13 07:26:08;;;;;;;;;;;;;;;21.08;41.60;100154.58;103600;1300;59389;-80
2024/03/13 07:28:38;;;;;;;;;;;;;;;21.10;41.66;100152.56;103877;1297;61266;-79
2024/03/13 07:31:04;;;;;;;;;;;;;;;21.13;41.63;100153.44;104002;1295;61165;-79
2024/03/13 07:33:30;;;;;;;;;;;;;;;21.15;41.56;100157.58;103641;1296;72301;-79
2024/03/13 07:35:56;;;;;;;;;;;;;;;21.16;41.68;100155.29;103821;1297;59003;-80
2024/03/13 07:38:21;;;;;;;;;;;;;;;21.19;41.57;100157.40;103640;1297;60178;-80
2024/03/13 07:40:47;;;;;;;;;;;;;;;21.22;41.70;100157.88;103970;1294;59468;-79
2024/03/13 07:43:12;;;;;;;;;;;;;;;21.24;41.67;100161.48;104083;1295;59426;-79
2024/03/13 07:45:39;;;;;;;;;;;;;;;21.25;41.63;100162.61;103911;1295;71260;-79
2024/03/13 07:48:08;;;;;;;;;;;;;;;21.27;41.70;100166.44;103929;1295;74589;-79
2024/03/13 07:50:38;;;;;;;;;;;;;;;21.28;41.82;100163.13;103927;1296;61150;-80
2024/03/13 07:53:06;;;;;;;;;;;;;;;21.30;41.78;100173.21;103994;1294;60443;-80
2024/03/13 07:55:32;;;;;;;;;;;;;;;21.30;41.70;100168.33;103981;1295;72492;-80
2024/03/13 07:57:58;;;;;;;;;;;;;;;21.28;41.88;100172.79;103670;1295;61506;-79
2024/03/13 08:00:23;;;;;;;;;;;;;;;21.28;41.93;100172.06;103807;1297;61367;-80
2024/03/13 08:02:49;;;;;;;;;;;;;;;21.28;42.11;100176.36;103852;1295;61369;-79
2024/03/13 08:05:16;;;;;;;;;;;;;;;21.28;42.13;100173.48;103711;1295;59249;-80
2024/03/13 08:07:44;;;;;;;;;;;;;;;21.29;42.23;100173.94;103741;1295;62261;-79
2024/03/13 08:10:17;;;;;;;;;;;;;;;21.31;42.23;100177.24;103556;1297;61403;-80
2024/03/13 08:12:43;;;;;;;;;;;;;;;21.32;42.19;100177.16;103872;1297;61304;-79
2024/03/13 08:15:09;;;;;;;;;;;;;;;21.33;42.27;100178.67;103927;1295;61556;-80
2024/03/13 08:17:38;;;;;;;;;;;;;;;21.33;42.29;100177.02;103910;1300;74333;-79
2024/03/13 08:20:05;;;;;;;;;;;;;;;21.35;42.24;100179.57;103939;1295;61356;-79
2024/03/13 08:22:31;;;;;;;;;;;;;;;21.36;42.38;100179.45;103711;1294;59376;-79
2024/03/13 08:24:58;;;;;;;;;;;;;;;21.37;42.13;100179.34;103935;1294;61266;-79
2024/03/13 08:27:24;;;;;;;;;;;;;;;21.39;42.25;100183.52;104181;1294;61365;-79
2024/03/13 08:29:49;;;;;;;;;;;;;;;21.40;42.37;100182.52;104225;1295;61343;-79
2024/03/13 08:32:15;;;;;;;;;;;;;;;21.41;42.34;100181.02;104113;1295;60174;-79
2024/03/13 08:34:43;;;;;;;;;;;;;;;21.42;42.33;100182.95;104176;1295;59426;-79
2024/03/13 08:37:10;;;;;;;;;;;;;;;21.43;42.32;100180.83;105764;1295;59631;-80
2024/03/13 08:39:36;;;;;;;;;;;;;;;21.44;42.53;100183.98;105882;1294;59795;-79
2024/03/13 08:42:01;;;;;;;;;;;;;;;21.46;42.54;100182.11;105715;1296;59202;-80
2024/03/13 08:44:29;;;;;;;;;;;;;;;21.46;42.63;100182.77;105687;1296;58901;-79
2024/03/13 08:46:55;;;;;;;;;;;;;;;21.47;42.55;100186.23;105826;1294;59141;-79
2024/03/13 08:49:20;;;;;;;;;;;;;;;21.48;42.69;100184.73;105676;1297;59069;-79
2024/03/13 08:51:46;;;;;;;;;;;;;;;21.50;42.63;100184.80;105857;1294;59680;-79
2024/03/13 08:54:12;;;;;;;;;;;;;;;21.52;42.93;100189.11;105833;1294;58767;-80
2024/03/13 08:56:38;;;;;;;;;;;;;;;21.53;42.93;100186.31;105841;1294;59848;-79
2024/03/13 08:59:05;;;;;;;;;;;;;;;21.53;43.18;100186.84;105815;1294;59868;-79
2024/03/13 09:01:30;;;;;;;;;;;;;;;21.55;43.55;100187.23;105635;1297;60001;-81
2024/03/13 09:03:57;;;;;;;;;;;;;;;21.58;43.81;100186.45;105585;1295;59410;-79
2024/03/13 09:06:23;;;;;;;;;;;;;;;21.59;43.87;100190.66;105655;1295;72753;-80
2024/03/13 09:08:49;;;;;;;;;;;;;;;21.61;44.08;100192.49;105837;1298;59196;-79
2024/03/13 09:11:16;;;;;;;;;;;;;;;21.61;43.93;100193.55;105665;1294;59084;-79
2024/03/13 09:13:42;;;;;;;;;;;;;;;21.61;44.13;100190.67;105406;1297;59632;-79
2024/03/13 09:16:11;;;;;;;;;;;;;;;21.62;44.12;100195.30;105734;1296;59910;-79
2024/03/13 09:18:37;;;;;;;;;;;;;;;21.62;43.97;100196.35;105667;1296;73464;-79
2024/03/13 09:21:02;;;;;;;;;;;;;;;21.64;44.19;100199.25;105699;1296;58964;-79
2024/03/13 09:23:29;;;;;;;;;;;;;;;21.64;44.07;100200.45;105702;1297;59236;-79
2024/03/13 09:25:58;;;;;;;;;;;;;;;21.65;44.06;100200.08;105637;1296;58926;-79
2024/03/13 09:28:23;;;;;;;;;;;;;;;21.65;44.14;100199.50;105647;1297;73344;-80
2024/03/13 09:30:49;;;;;;;;;;;;;;;21.66;44.23;100201.98;105704;1296;58923;-79
2024/03/13 09:33:14;;;;;;;;;;;;;;;21.66;44.35;100204.11;105720;1296;59509;-79
2024/03/13 09:35:40;;;;;;;;;;;;;;;21.66;44.48;100204.26;105669;1297;59457;-79
2024/03/13 09:38:08;;;;;;;;;;;;;;;21.67;44.52;100205.84;105585;1297;60305;-79
2024/03/13 09:40:35;;;;;;;;;;;;;;;21.66;44.56;100206.42;105606;1296;58716;-79
2024/03/13 09:43:01;;;;;;;;;;;;;;;21.66;44.63;100206.06;105617;1297;58976;-79
2024/03/13 09:45:27;;;;;;;;;;;;;;;21.66;44.74;100206.96;105691;1296;58430;-79
2024/03/13 09:47:53;;;;;;;;;;;;;;;21.66;44.65;100206.25;105579;1297;59592;-79
2024/03/13 09:50:20;;;;;;;;;;;;;;;21.63;44.64;100208.08;105514;1296;59460;-81
2024/03/13 09:52:48;;;;;;;;;;;;;;;21.60;44.54;100210.31;105586;1297;59627;-80
2024/03/13 09:55:15;;;;;;;;;;;;;;;21.52;44.57;100208.58;104567;1296;59408;-83
2024/03/13 09:57:41;;;;;;;;;;;;;;;21.45;44.51;100208.61;104105;1296;74630;-82
2024/03/13 10:00:18;;;;;;;;;;;;;;;21.39;44.63;100208.07;104305;1297;59974;-81
2024/03/13 10:02:52;;;;;;;;;;;;;;;21.33;44.68;100208.04;104382;1296;61302;-81
2024/03/13 10:05:20;;;;;;;;;;;;;;;21.31;44.83;100213.95;104326;1296;72433;-82
2024/03/13 10:07:53;;;;;;;;;;;;;;;21.30;44.84;100215.45;105126;1296;74808;-79
2024/03/13 10:10:28;;;;;;;;;;;;;;;21.26;44.95;100213.73;104248;1298;60599;-83
2024/03/13 10:12:57;;;;;;;;;;;;;;;21.17;44.78;100212.48;104521;1296;60381;-81
2024/03/13 10:15:23;;;;;;;;;;;;;;;21.15;44.96;100213.23;104401;1297;72810;-79
2024/03/13 10:18:07;;;;;;;;;;;;;;;21.13;44.94;100211.11;103974;1297;61397;-79
2024/03/13 10:20:40;;;;;;;;;;;;;;;21.13;45.06;100212.85;104159;1300;62203;-80
2024/03/13 10:23:05;;;;;;;;;;;;;;;21.16;45.17;100208.34;104955;1297;60213;-80
2024/03/13 10:25:31;;;;;;;;;;;;;;;21.18;45.05;100208.84;104032;1300;61244;-80
2024/03/13 10:27:56;;;;;;;;;;;;;;;21.21;45.07;100209.13;103998;1297;61411;-79
2024/03/13 10:30:22;;;;;;;;;;;;;;;21.23;45.09;100207.90;103884;1300;60035;-80
2024/03/13 10:32:48;;;;;;;;;;;;;;;21.25;45.02;100207.75;103977;1295;61365;-80
2024/03/13 10:35:16;;;;;;;;;;;;;;;21.27;44.98;100208.64;105569;1297;60283;-80
2024/03/13 10:37:50;;;;;;;;;;;;;;;21.29;45.15;100210.83;105582;1296;72277;-80
2024/03/13 10:40:15;;;;;;;;;;;;;;;21.32;45.18;100208.10;105467;1295;59758;-80
2024/03/13 10:42:42;;;;;;;;;;;;;;;21.34;45.20;100204.56;105564;1295;59534;-80
2024/03/13 10:45:10;;;;;;;;;;;;;;;21.35;45.17;100203.39;105526;1297;58451;-80
2024/03/13 10:47:36;;;;;;;;;;;;;;;21.37;45.23;100200.89;105422;1300;72255;-80
2024/03/13 10:50:02;;;;;;;;;;;;;;;21.38;45.14;100196.16;105560;1296;59681;-80
2024/03/13 10:52:28;;;;;;;;;;;;;;;21.40;45.11;100197.78;105355;1299;59325;-80
2024/03/13 10:54:54;;;;;;;;;;;;;;;21.41;45.18;100192.98;105254;1299;58860;-80
2024/03/13 10:57:20;;;;;;;;;;;;;;;21.43;45.18;100193.24;105370;1299;59738;-83
2024/03/13 10:59:48;;;;;;;;;;;;;;;21.44;45.17;100188.12;105278;1298;59280;-81
2024/03/13 11:02:15;;;;;;;;;;;;;;;21.45;45.14;100192.52;105239;1297;59490;-79
2024/03/13 11:04:42;;;;;;;;;;;;;;;21.45;45.14;100191.84;105213;1300;59746;-81
2024/03/13 11:07:12;;;;;;;;;;;;;;;21.40;45.01;100190.98;105246;1299;59664;-82
2024/03/13 11:09:39;;;;;;;;;;;;;;;21.28;44.95;100190.88;105316;1300;74346;-81
2024/03/13 11:12:07;;;;;;;;;;;;;;;21.22;45.14;100189.73;105272;1299;59397;-80
2024/03/13 11:14:32;;;;;;;;;;;;;;;21.25;45.25;100187.01;105266;1299;61703;-81
2024/03/13 11:16:58;;;;;;;;;;;;;;;21.29;45.22;100187.61;105124;1304;58787;-81
2024/03/13 11:19:24;;;;;;;;;;;;;;;21.30;45.29;100183.70;103628;1300;61376;-81
2024/03/13 11:21:54;;;;;;;;;;;;;;;21.33;45.39;100181.73;103473;1299;61493;-80
2024/03/13 11:24:25;;;;;;;;;;;;;;;21.35;45.26;100180.27;103840;1297;61292;-80
2024/03/13 11:26:53;;;;;;;;;;;;;;;21.37;45.24;100181.33;104059;1296;72254;-80
2024/03/13 11:29:20;;;;;;;;;;;;;;;21.40;45.41;100180.04;104042;1297;74140;-80
2024/03/13 11:31:48;;;;;;;;;;;;;;;21.42;45.33;100178.29;103998;1298;61387;-80
2024/03/13 11:34:27;;;;;;;;;;;;;;;;;;;;;
2024/03/13 11:36:53;;;;;;;;;;;;;;;21.46;45.34;100182.27;104025;1297;73287;-80
2024/03/13 11:39:21;;;;;;;;;;;;;;;21.47;45.34;100178.39;104195;1297;61485;-79
2024/03/13 11:41:47;;;;;;;;;;;;;;;21.48;45.43;100181.14;104111;1295;61211;-80
2024/03/13 11:44:18;;;;;;;;;;;;;;;21.50;45.35;100179.58;104286;1297;60736;-80
2024/03/13 11:46:48;;;;;;;;;;;;;;;21.52;45.31;100179.45;104193;1301;72433;-80
2024/03/13 11:49:19;;;;;;;;;;;;;;;21.53;45.31;100182.06;104170;1297;75095;-80
2024/03/13 11:52:22;;;;;;;;;;;;;;;21.54;45.27;100181.41;104264;1296;61290;-79
2024/03/13 11:54:49;;;;;;;;;;;;;;;21.56;45.18;100180.16;103658;1303;61170;-80
2024/03/13 11:57:14;;;;;;;;;;;;;;;21.57;45.23;100175.94;103441;1303;61353;-80
2024/03/13 11:59:44;;;;;;;;;;;;;;;21.58;45.28;100175.38;103531;1303;60193;-81
2024/03/13 12:02:28;;;;;;;;;;;;;;;21.58;45.20;100176.63;103602;1303;60052;-79
2024/03/13 12:05:06;;;;;;;;;;;;;;;21.56;45.21;100176.98;104047;1305;61400;-80
2024/03/13 12:07:42;;;;;;;;;;;;;;;21.53;45.20;100174.88;103795;1306;72616;-80
2024/03/13 12:10:17;;;;;;;;;;;;;;;21.52;45.35;100172.06;103436;1303;74396;-81
2024/03/13 12:12:43;;;;;;;;;;;;;;;21.52;45.39;100173.51;103190;1305;61345;-81
2024/03/13 12:15:08;;;;;;;;;;;;;;;21.52;45.44;100174.59;103373;1305;61486;-81
2024/03/13 12:17:34;;;;;;;;;;;;;;;21.53;45.61;100172.59;103615;1306;61027;-81
2024/03/13 12:20:00;;;;;;;;;;;;;;;21.55;45.67;100172.23;103180;1306;59482;-80
2024/03/13 12:22:26;;;;;;;;;;;;;;;21.57;45.85;100171.16;103447;1306;60524;-81
2024/03/13 12:24:52;;;;;;;;;;;;;;;21.57;45.78;100174.33;103448;1306;60547;-81
2024/03/13 12:27:18;;;;;;;;;;;;;;;21.58;45.85;100171.08;103532;1303;60117;-81
2024/03/13 12:29:44;;;;;;;;;;;;;;;21.58;45.65;100172.47;103879;1300;61426;-81
2024/03/13 12:32:13;;;;;;;;;;;;;;;21.59;45.74;100178.10;104011;1297;60443;-81
2024/03/13 12:34:44;;;;;;;;;;;;;;;21.60;45.72;100177.88;104031;1297;61226;-81
2024/03/13 12:37:16;;;;;;;;;;;;;;;21.60;45.75;100178.38;104262;1296;61315;-80
2024/03/13 12:39:51;;;;;;;;;;;;;;;21.62;45.51;100181.88;104048;1297;72526;-81
2024/03/13 12:42:16;;;;;;;;;;;;;;;21.62;45.50;100181.34;103882;1296;61493;-83
2024/03/13 12:44:43;;;;;;;;;;;;;;;21.60;45.55;100181.95;104231;1300;61330;-81
2024/03/13 12:47:12;;;;;;;;;;;;;;;21.59;45.45;100184.58;103775;1295;61446;-82